Time;durP1;ratioP1;P1;durP2;ratioP2;P2;SDS_P1;SDS_P2;PMS_P1;PMS_P2;Temp;Humidity;BMP_temperature;BMP_pressure;BME280_temperature;BME280_humidity;BME280_pressure;Samples;Min_cycle;Max_cycle;Signal;HPM_P1;HPM_P2
2023/10/23 00:00:14;;;;;;;3.00;1.65;;;;;;;;;;5055985;28;20061;-62
2023/10/23 00:02:40;;;;;;;3.10;1.60;;;;;;;;;;5049814;28;20048;-62
2023/10/23 00:05:07;;;;;;;2.65;1.90;;;;;;;;;;5068039;28;20040;-64
2023/10/23 00:07:33;;;;;;;3.33;1.58;;;;;;;;;;5066826;28;20170;-62
2023/10/23 00:09:59;;;;;;;2.72;1.80;;;;;;;;;;5067710;28;20044;-63
2023/10/23 00:12:25;;;;;;;7.35;2.20;;;;;;;;;;5058838;28;20127;-63
2023/10/23 00:14:51;;;;;;;4.05;2.30;;;;;;;;;;5057991;28;20134;-62
2023/10/23 00:17:17;;;;;;;3.50;2.10;;;;;;;;;;5064451;28;20148;-63
2023/10/23 00:19:43;;;;;;;5.07;1.90;;;;;;;;;;5063934;28;20029;-63
2023/10/23 00:22:10;;;;;;;2.63;1.73;;;;;;;;;;5047380;28;20154;-63
2023/10/23 00:24:36;;;;;;;5.25;2.50;;;;;;;;;;5066836;28;20080;-63
2023/10/23 00:27:02;;;;;;;2.22;1.55;;;;;;;;;;5067444;28;20060;-63
2023/10/23 00:29:28;;;;;;;2.70;1.95;;;;;;;;;;5066616;28;20067;-63
2023/10/23 00:31:54;;;;;;;4.75;2.55;;;;;;;;;;5067199;28;20040;-63
2023/10/23 00:34:21;;;;;;;2.92;1.70;;;;;;;;;;5065668;28;20063;-63
2023/10/23 00:36:47;;;;;;;2.90;2.10;;;;;;;;;;5061638;28;20656;-64
2023/10/23 00:39:14;;;;;;;4.55;2.13;;;;;;;;;;5067989;28;20044;-63
2023/10/23 00:41:42;;;;;;;4.60;2.10;;;;;;;;;;5067661;28;20107;-63
2023/10/23 00:44:08;;;;;;;5.25;2.72;;;;;;;;;;5066545;28;20406;-64
2023/10/23 00:46:34;;;;;;;5.40;2.22;;;;;;;;;;5043889;28;20036;-64
2023/10/23 00:49:01;;;;;;;4.53;2.08;;;;;;;;;;5067179;28;20045;-64
2023/10/23 00:51:28;;;;;;;3.88;2.15;;;;;;;;;;5062232;28;20048;-64
2023/10/23 00:53:55;;;;;;;3.65;2.05;;;;;;;;;;5066592;28;20040;-64
2023/10/23 00:56:21;;;;;;;4.53;1.95;;;;;;;;;;5021792;28;20083;-65
2023/10/23 00:58:47;;;;;;;2.80;1.80;;;;;;;;;;5066025;28;20033;-63
2023/10/23 01:01:13;;;;;;;3.40;1.90;;;;;;;;;;5060955;28;20037;-64
2023/10/23 01:03:42;;;;;;;3.05;2.30;;;;;;;;;;5066534;28;20040;-64
2023/10/23 01:06:09;;;;;;;3.45;2.30;;;;;;;;;;5066854;28;20033;-64
2023/10/23 01:08:35;;;;;;;3.13;2.28;;;;;;;;;;5069547;28;20036;-64
2023/10/23 01:11:01;;;;;;;2.83;2.20;;;;;;;;;;5052971;28;20120;-64
2023/10/23 01:13:28;;;;;;;4.00;2.10;;;;;;;;;;5067862;28;20063;-63
2023/10/23 01:15:54;;;;;;;3.90;2.22;;;;;;;;;;5065108;28;20059;-64
2023/10/23 01:18:20;;;;;;;7.03;2.53;;;;;;;;;;5051846;28;20076;-62
2023/10/23 01:20:47;;;;;;;4.85;2.58;;;;;;;;;;5068804;28;20060;-62
2023/10/23 01:23:13;;;;;;;3.97;2.00;;;;;;;;;;5067460;28;20041;-62
2023/10/23 01:25:39;;;;;;;4.93;2.08;;;;;;;;;;5069783;28;20082;-63
2023/10/23 01:28:06;;;;;;;5.97;2.97;;;;;;;;;;5068766;28;20542;-63
2023/10/23 01:30:32;;;;;;;3.42;2.28;;;;;;;;;;5070392;28;20047;-64
2023/10/23 01:32:58;;;;;;;2.85;1.90;;;;;;;;;;5064904;28;20036;-64
2023/10/23 01:35:24;;;;;;;2.90;1.98;;;;;;;;;;5070197;28;20040;-64
2023/10/23 01:37:51;;;;;;;3.70;2.38;;;;;;;;;;5050667;28;20040;-63
2023/10/23 01:40:18;;;;;;;3.88;2.20;;;;;;;;;;5070963;28;20032;-64
2023/10/23 01:42:46;;;;;;;3.85;2.15;;;;;;;;;;5050634;28;20083;-64
2023/10/23 01:45:12;;;;;;;4.15;2.65;;;;;;;;;;5065153;28;20589;-64
2023/10/23 01:47:39;;;;;;;4.78;2.28;;;;;;;;;;5067827;28;20041;-63
2023/10/23 01:50:06;;;;;;;3.95;2.50;;;;;;;;;;5066527;28;20056;-63
2023/10/23 01:52:32;;;;;;;4.03;2.20;;;;;;;;;;5069115;28;20205;-64
2023/10/23 01:54:58;;;;;;;10.23;2.90;;;;;;;;;;5069672;28;20044;-64
2023/10/23 01:57:25;;;;;;;2.72;1.85;;;;;;;;;;5067003;28;20446;-63
2023/10/23 01:59:52;;;;;;;4.47;2.38;;;;;;;;;;5065378;28;20500;-63
2023/10/23 02:02:19;;;;;;;2.58;1.85;;;;;;;;;;5068894;28;20203;-63
2023/10/23 02:04:45;;;;;;;3.83;2.78;;;;;;;;;;5066352;28;20458;-64
2023/10/23 02:07:11;;;;;;;3.53;2.47;;;;;;;;;;5051123;28;20052;-63
2023/10/23 02:09:37;;;;;;;5.00;2.50;;;;;;;;;;5071681;28;20182;-63
2023/10/23 02:12:04;;;;;;;3.85;2.80;;;;;;;;;;5077120;28;20047;-64
2023/10/23 02:14:32;;;;;;;3.25;2.13;;;;;;;;;;5062024;28;20086;-63
2023/10/23 02:16:58;;;;;;;5.15;2.90;;;;;;;;;;5026488;28;20044;-64
2023/10/23 02:19:24;;;;;;;4.93;3.28;;;;;;;;;;5070186;28;20040;-64
2023/10/23 02:21:50;;;;;;;4.80;2.50;;;;;;;;;;5069503;28;20049;-64
2023/10/23 02:24:17;;;;;;;3.35;2.38;;;;;;;;;;5068148;28;20392;-64
2023/10/23 02:26:43;;;;;;;3.50;2.25;;;;;;;;;;5069635;28;20372;-65
2023/10/23 02:29:09;;;;;;;4.35;2.80;;;;;;;;;;5068282;28;20055;-63
2023/10/23 02:31:36;;;;;;;2.88;2.13;;;;;;;;;;5069401;28;20040;-64
2023/10/23 02:34:02;;;;;;;3.53;2.47;;;;;;;;;;5069568;28;20108;-64
2023/10/23 02:36:29;;;;;;;4.88;2.55;;;;;;;;;;5069483;28;20126;-64
2023/10/23 02:38:55;;;;;;;3.40;2.38;;;;;;;;;;5059113;28;20060;-64
2023/10/23 02:41:21;;;;;;;3.42;2.20;;;;;;;;;;5069060;28;20044;-63
2023/10/23 02:43:49;;;;;;;3.08;2.40;;;;;;;;;;5066528;28;20036;-63
2023/10/23 02:46:15;;;;;;;4.85;2.85;;;;;;;;;;5068758;28;20039;-63
2023/10/23 02:48:41;;;;;;;4.05;2.90;;;;;;;;;;5069097;28;20068;-64
2023/10/23 02:51:08;;;;;;;4.53;2.78;;;;;;;;;;5068159;28;20033;-64
2023/10/23 02:53:37;;;;;;;3.33;2.20;;;;;;;;;;5066424;28;20111;-65
2023/10/23 02:56:03;;;;;;;7.70;3.78;;;;;;;;;;5069196;28;20089;-64
2023/10/23 02:58:29;;;;;;;4.93;2.83;;;;;;;;;;5065988;28;20037;-64
2023/10/23 03:00:55;;;;;;;3.83;2.58;;;;;;;;;;5068041;28;20108;-64
2023/10/23 03:03:21;;;;;;;3.83;2.60;;;;;;;;;;5067047;28;20052;-64
2023/10/23 03:05:48;;;;;;;5.47;3.15;;;;;;;;;;5050950;28;20373;-63
2023/10/23 03:08:14;;;;;;;5.90;2.60;;;;;;;;;;5079009;28;20115;-64
2023/10/23 03:10:40;;;;;;;3.67;2.55;;;;;;;;;;5034113;28;20371;-64
2023/10/23 03:13:07;;;;;;;3.67;2.20;;;;;;;;;;5065580;28;20041;-64
2023/10/23 03:15:33;;;;;;;4.45;3.30;;;;;;;;;;5051914;28;20044;-64
2023/10/23 03:18:03;;;;;;;4.95;3.03;;;;;;;;;;5066475;28;20468;-64
2023/10/23 03:20:30;;;;;;;3.97;2.70;;;;;;;;;;5060014;28;20108;-65
2023/10/23 03:22:56;;;;;;;4.65;3.00;;;;;;;;;;5065548;28;20048;-64
2023/10/23 03:25:23;;;;;;;4.25;2.95;;;;;;;;;;5061467;28;20346;-63
2023/10/23 03:27:49;;;;;;;4.05;2.85;;;;;;;;;;5065907;28;20040;-63
2023/10/23 03:30:16;;;;;;;4.00;2.78;;;;;;;;;;5068437;28;20072;-63
2023/10/23 03:32:42;;;;;;;4.75;2.78;;;;;;;;;;5068248;28;20071;-64
2023/10/23 03:35:08;;;;;;;5.88;3.33;;;;;;;;;;5068644;28;20032;-64
2023/10/23 03:37:34;;;;;;;4.28;2.72;;;;;;;;;;5046577;28;20048;-62
2023/10/23 03:40:01;;;;;;;4.65;2.70;;;;;;;;;;5045372;28;20229;-64
2023/10/23 03:42:28;;;;;;;3.97;2.85;;;;;;;;;;5067410;28;20480;-63
2023/10/23 03:44:54;;;;;;;8.68;2.63;;;;;;;;;;5046071;28;20575;-65
2023/10/23 03:47:29;;;;;;;3.33;2.70;;;;;;;;;;5066224;28;20059;-64
2023/10/23 03:49:55;;;;;;;3.50;2.45;;;;;;;;;;5066442;28;20131;-63
2023/10/23 03:52:21;;;;;;;3.85;2.72;;;;;;;;;;5066550;28;20162;-64
2023/10/23 03:54:47;;;;;;;6.82;2.60;;;;;;;;;;5064710;28;20032;-65
2023/10/23 03:57:13;;;;;;;4.72;3.30;;;;;;;;;;5067265;28;20060;-63
2023/10/23 03:59:43;;;;;;;3.75;2.67;;;;;;;;;;5066211;28;20045;-63
2023/10/23 04:02:09;;;;;;;4.22;2.63;;;;;;;;;;5061657;28;20032;-63
2023/10/23 04:04:35;;;;;;;5.07;3.20;;;;;;;;;;5067507;28;20569;-63
2023/10/23 04:07:01;;;;;;;4.20;2.92;;;;;;;;;;5076025;28;20279;-63
2023/10/23 04:09:31;;;;;;;3.65;2.40;;;;;;;;;;5064139;28;20040;-63
2023/10/23 04:11:57;;;;;;;6.28;3.30;;;;;;;;;;5066259;28;20040;-63
2023/10/23 04:14:23;;;;;;;3.50;2.38;;;;;;;;;;5044898;28;20391;-64
2023/10/23 04:16:49;;;;;;;4.90;2.63;;;;;;;;;;5025494;28;20044;-63
2023/10/23 04:19:16;;;;;;;5.15;3.08;;;;;;;;;;5062055;28;20060;-63
2023/10/23 04:21:42;;;;;;;4.32;2.90;;;;;;;;;;5066092;28;20098;-65
2023/10/23 04:24:11;;;;;;;3.28;2.65;;;;;;;;;;5045997;28;20469;-63
2023/10/23 04:26:38;;;;;;;4.40;2.55;;;;;;;;;;5046212;28;20836;-63
2023/10/23 04:29:04;;;;;;;4.40;2.55;;;;;;;;;;5064211;28;20051;-64
2023/10/23 04:31:33;;;;;;;3.60;2.45;;;;;;;;;;5047389;28;20093;-64
2023/10/23 04:34:05;;;;;;;3.17;2.38;;;;;;;;;;5064412;28;20103;-64
2023/10/23 04:36:31;;;;;;;4.82;3.38;;;;;;;;;;5066415;28;20056;-64
2023/10/23 04:38:57;;;;;;;3.95;2.38;;;;;;;;;;5048651;28;20103;-63
2023/10/23 04:41:29;;;;;;;3.70;2.63;;;;;;;;;;5071545;28;20101;-64
2023/10/23 04:43:55;;;;;;;4.15;2.83;;;;;;;;;;5050198;28;20090;-65
2023/10/23 04:46:21;;;;;;;4.85;2.95;;;;;;;;;;5068483;28;20114;-63
2023/10/23 04:48:47;;;;;;;5.03;2.80;;;;;;;;;;5070757;28;20123;-64
2023/10/23 04:51:13;;;;;;;3.28;2.30;;;;;;;;;;5070922;28;20044;-64
2023/10/23 04:53:39;;;;;;;4.22;2.45;;;;;;;;;;5069962;28;20485;-64
2023/10/23 04:56:05;;;;;;;4.65;2.40;;;;;;;;;;5071670;28;20040;-64
2023/10/23 04:58:31;;;;;;;5.57;2.53;;;;;;;;;;5051689;28;20055;-64
2023/10/23 05:00:58;;;;;;;4.35;2.58;;;;;;;;;;5071782;28;20055;-64
2023/10/23 05:03:24;;;;;;;5.60;3.35;;;;;;;;;;5070735;28;20040;-63
2023/10/23 05:05:51;;;;;;;5.72;2.75;;;;;;;;;;5037186;28;20067;-65
2023/10/23 05:08:17;;;;;;;4.40;2.60;;;;;;;;;;5068990;28;20116;-64
2023/10/23 05:10:43;;;;;;;4.60;2.80;;;;;;;;;;5071697;28;20051;-63
2023/10/23 05:13:09;;;;;;;5.20;3.10;;;;;;;;;;5069890;28;20043;-62
2023/10/23 05:15:35;;;;;;;3.95;2.95;;;;;;;;;;5068636;28;20045;-63
2023/10/23 05:18:01;;;;;;;4.35;3.05;;;;;;;;;;5032556;28;20044;-64
2023/10/23 05:20:27;;;;;;;4.65;2.92;;;;;;;;;;5067652;28;20036;-64
2023/10/23 05:22:54;;;;;;;4.55;2.60;;;;;;;;;;5069201;28;20095;-64
2023/10/23 05:25:20;;;;;;;5.57;3.00;;;;;;;;;;5070588;28;20041;-63
2023/10/23 05:27:46;;;;;;;4.40;3.03;;;;;;;;;;5054545;28;20059;-64
2023/10/23 05:30:12;;;;;;;4.75;2.65;;;;;;;;;;5072647;28;20123;-64
2023/10/23 05:32:38;;;;;;;4.25;2.95;;;;;;;;;;5070482;28;20395;-64
2023/10/23 05:35:05;;;;;;;4.95;3.40;;;;;;;;;;5052546;28;20044;-64
2023/10/23 05:37:34;;;;;;;4.30;2.97;;;;;;;;;;5073705;28;20040;-63
2023/10/23 05:40:00;;;;;;;3.53;3.03;;;;;;;;;;5072443;28;20049;-63
2023/10/23 05:42:26;;;;;;;6.57;3.28;;;;;;;;;;5077714;28;20089;-64
2023/10/23 05:44:52;;;;;;;5.40;3.17;;;;;;;;;;5069219;28;20124;-64
2023/10/23 05:47:18;;;;;;;4.13;3.05;;;;;;;;;;5072434;28;20471;-62
2023/10/23 05:49:45;;;;;;;4.32;2.88;;;;;;;;;;5072180;28;20048;-61
2023/10/23 05:52:11;;;;;;;4.18;3.13;;;;;;;;;;5069507;28;20110;-63
2023/10/23 05:54:37;;;;;;;6.15;3.72;;;;;;;;;;5068490;28;20037;-63
2023/10/23 05:57:03;;;;;;;4.13;3.35;;;;;;;;;;5068801;28;20439;-63
2023/10/23 05:59:29;;;;;;;3.97;2.92;;;;;;;;;;5065057;28;20055;-63
2023/10/23 06:01:55;;;;;;;4.30;2.90;;;;;;;;;;5068983;28;20373;-63
2023/10/23 06:04:21;;;;;;;4.78;3.33;;;;;;;;;;5050447;28;20036;-63
2023/10/23 06:06:47;;;;;;;4.72;3.22;;;;;;;;;;5073900;28;20039;-63
2023/10/23 06:09:14;;;;;;;6.57;3.80;;;;;;;;;;5079158;28;20051;-63
2023/10/23 06:11:40;;;;;;;4.22;3.30;;;;;;;;;;5078718;28;20048;-63
2023/10/23 06:14:06;;;;;;;5.50;3.88;;;;;;;;;;5067436;28;20056;-63
2023/10/23 06:16:32;;;;;;;6.53;3.65;;;;;;;;;;5068317;28;20411;-63
2023/10/23 06:18:59;;;;;;;6.13;3.55;;;;;;;;;;5065279;28;20122;-64
2023/10/23 06:21:25;;;;;;;4.57;3.15;;;;;;;;;;5051187;28;20413;-63
2023/10/23 06:23:52;;;;;;;7.00;3.30;;;;;;;;;;5049450;28;20512;-64
2023/10/23 06:26:18;;;;;;;5.65;3.47;;;;;;;;;;5066987;28;20032;-64
2023/10/23 06:28:44;;;;;;;4.40;3.22;;;;;;;;;;5065960;28;20048;-63
2023/10/23 06:31:11;;;;;;;5.82;3.38;;;;;;;;;;5065988;28;20448;-64
2023/10/23 06:33:44;;;;;;;5.43;3.60;;;;;;;;;;5060676;28;20104;-64
2023/10/23 06:36:10;;;;;;;;;;;;;;;;;;5072222;28;20145;-63
2023/10/23 06:38:36;;;;;;;4.47;3.28;;;;;;;;;;5067418;28;19920;-63
2023/10/23 06:41:04;;;;;;;5.95;3.13;;;;;;;;;;5071654;28;20032;-64
2023/10/23 06:43:31;;;;;;;4.25;3.05;;;;;;;;;;5065362;28;20487;-62
2023/10/23 06:45:57;;;;;;;5.40;4.18;;;;;;;;;;5067616;28;20114;-63
2023/10/23 06:48:23;;;;;;;5.75;3.45;;;;;;;;;;5067928;28;20068;-63
2023/10/23 06:50:51;;;;;;;7.55;3.58;;;;;;;;;;5068247;28;20041;-64
2023/10/23 06:53:22;;;;;;;6.65;3.55;;;;;;;;;;5065056;28;20043;-63
2023/10/23 06:55:49;;;;;;;4.85;3.08;;;;;;;;;;5067674;28;20036;-63
2023/10/23 06:58:15;;;;;;;6.22;3.70;;;;;;;;;;5077928;28;20037;-64
2023/10/23 07:00:41;;;;;;;4.18;3.20;;;;;;;;;;5055324;28;20047;-63
2023/10/23 07:03:08;;;;;;;5.18;3.75;;;;;;;;;;5075503;28;20055;-62
2023/10/23 07:05:34;;;;;;;4.55;3.38;;;;;;;;;;5068213;28;20033;-63
2023/10/23 07:08:00;;;;;;;4.57;3.40;;;;;;;;;;5066717;28;20423;-63
2023/10/23 07:10:26;;;;;;;6.20;3.20;;;;;;;;;;5048491;28;20454;-64
2023/10/23 07:12:54;;;;;;;5.05;3.40;;;;;;;;;;5066400;28;20067;-64
2023/10/23 07:15:20;;;;;;;7.32;3.67;;;;;;;;;;5062510;28;20461;-63
2023/10/23 07:17:46;;;;;;;4.22;3.10;;;;;;;;;;5058306;28;20069;-64
2023/10/23 07:20:16;;;;;;;5.07;3.75;;;;;;;;;;5026292;28;1134371;-64
2023/10/23 07:22:44;;;;;;;4.10;3.10;;;;;;;;;;5067001;28;20050;-63
2023/10/23 07:25:10;;;;;;;5.18;3.20;;;;;;;;;;5058253;28;20072;-63
2023/10/23 07:27:39;;;;;;;8.18;4.25;;;;;;;;;;5059336;28;20110;-63
2023/10/23 07:30:05;;;;;;;5.15;3.42;;;;;;;;;;5070113;28;20110;-63
2023/10/23 07:32:31;;;;;;;6.07;3.55;;;;;;;;;;5048722;28;20503;-64
2023/10/23 07:34:57;;;;;;;5.05;3.88;;;;;;;;;;5069893;28;20043;-65
2023/10/23 07:37:23;;;;;;;6.20;3.50;;;;;;;;;;5065247;28;21258;-63
2023/10/23 07:39:50;;;;;;;5.13;3.22;;;;;;;;;;5062721;28;20064;-63
2023/10/23 07:42:16;;;;;;;3.83;2.75;;;;;;;;;;5066687;28;20127;-64
2023/10/23 07:44:42;;;;;;;7.28;4.18;;;;;;;;;;5064777;28;20040;-63
2023/10/23 07:47:08;;;;;;;8.35;4.00;;;;;;;;;;5067843;28;20033;-64
2023/10/23 07:49:36;;;;;;;5.47;3.45;;;;;;;;;;5066774;28;20044;-64
2023/10/23 07:52:03;;;;;;;4.63;3.47;;;;;;;;;;5066732;28;20048;-64
2023/10/23 07:54:31;;;;;;;5.85;3.20;;;;;;;;;;5063263;28;20036;-63
2023/10/23 07:56:57;;;;;;;3.97;3.15;;;;;;;;;;5067408;28;20534;-63
2023/10/23 07:59:25;;;;;;;3.97;3.05;;;;;;;;;;5066787;28;20116;-64
2023/10/23 08:01:52;;;;;;;5.55;3.30;;;;;;;;;;5066993;28;20115;-63
2023/10/23 08:04:18;;;;;;;5.65;3.47;;;;;;;;;;5066907;28;20040;-63
2023/10/23 08:06:45;;;;;;;3.97;3.03;;;;;;;;;;5067864;28;20158;-62
2023/10/23 08:09:11;;;;;;;3.67;2.70;;;;;;;;;;5066827;28;20105;-64
2023/10/23 08:11:37;;;;;;;4.43;3.10;;;;;;;;;;5067681;28;20036;-64
2023/10/23 08:14:04;;;;;;;4.63;3.22;;;;;;;;;;5041642;28;20073;-63
2023/10/23 08:16:30;;;;;;;3.47;2.40;;;;;;;;;;5071034;28;20036;-64
2023/10/23 08:18:57;;;;;;;4.85;2.85;;;;;;;;;;5079149;28;20035;-63
2023/10/23 08:21:26;;;;;;;5.10;2.72;;;;;;;;;;5072250;28;20036;-62
2023/10/23 08:23:58;;;;;;;5.90;2.85;;;;;;;;;;5071079;28;20047;-64
2023/10/23 08:26:29;;;;;;;4.05;2.58;;;;;;;;;;5056184;28;20419;-64
2023/10/23 08:28:58;;;;;;;3.47;2.22;;;;;;;;;;5070737;28;20399;-63
2023/10/23 08:31:24;;;;;;;3.47;2.70;;;;;;;;;;5061869;28;20037;-63
2023/10/23 08:33:50;;;;;;;4.03;2.20;;;;;;;;;;5071424;28;20036;-63
2023/10/23 08:36:17;;;;;;;4.10;2.17;;;;;;;;;;5070491;28;20279;-64
2023/10/23 08:38:46;;;;;;;3.60;2.08;;;;;;;;;;5068696;28;20454;-64
2023/10/23 08:41:12;;;;;;;2.47;1.98;;;;;;;;;;5067134;28;20047;-64
2023/10/23 08:43:40;;;;;;;3.85;2.45;;;;;;;;;;5066105;28;20164;-64
2023/10/23 08:46:08;;;;;;;4.78;2.55;;;;;;;;;;5067469;28;20071;-63
2023/10/23 08:48:36;;;;;;;2.58;1.80;;;;;;;;;;5066253;28;20069;-64
2023/10/23 08:51:02;;;;;;;3.75;1.80;;;;;;;;;;5069003;28;20084;-65
2023/10/23 08:53:32;;;;;;;5.38;2.00;;;;;;;;;;5069857;28;20133;-65
2023/10/23 08:55:59;;;;;;;3.05;1.77;;;;;;;;;;5068492;28;20040;-64
2023/10/23 08:58:26;;;;;;;2.95;1.95;;;;;;;;;;5067586;28;20488;-64
2023/10/23 09:00:52;;;;;;;3.25;1.92;;;;;;;;;;5069978;28;20036;-63
2023/10/23 09:03:19;;;;;;;3.70;2.20;;;;;;;;;;5069008;28;20131;-65
2023/10/23 09:05:45;;;;;;;2.75;1.83;;;;;;;;;;5066606;28;20032;-64
2023/10/23 09:08:11;;;;;;;3.05;2.08;;;;;;;;;;5050774;28;20045;-65
2023/10/23 09:10:56;;;;;;;3.47;1.67;;;;;;;;;;5065627;28;20399;-65
2023/10/23 09:13:24;;;;;;;5.13;2.00;;;;;;;;;;5048569;28;20571;-65
2023/10/23 09:15:51;;;;;;;4.00;1.90;;;;;;;;;;5066435;28;20036;-65
2023/10/23 09:18:17;;;;;;;3.00;1.50;;;;;;;;;;5066289;28;20659;-65
2023/10/23 09:20:43;;;;;;;3.72;1.60;;;;;;;;;;5065438;28;20037;-64
2023/10/23 09:23:12;;;;;;;2.22;1.60;;;;;;;;;;5069426;28;20039;-64
2023/10/23 09:25:39;;;;;;;3.22;2.05;;;;;;;;;;5068958;28;20047;-64
2023/10/23 09:28:10;;;;;;;3.40;2.08;;;;;;;;;;5067548;28;20461;-64
2023/10/23 09:30:37;;;;;;;1.73;1.43;;;;;;;;;;5066215;28;20062;-64
2023/10/23 09:33:06;;;;;;;3.08;1.92;;;;;;;;;;5070260;28;20113;-64
2023/10/23 09:35:33;;;;;;;5.10;2.10;;;;;;;;;;5072516;28;20063;-64
2023/10/23 09:37:59;;;;;;;3.15;2.03;;;;;;;;;;5068166;28;20040;-63
2023/10/23 09:40:27;;;;;;;2.53;1.58;;;;;;;;;;5065453;28;20150;-63
2023/10/23 09:42:55;;;;;;;4.68;1.52;;;;;;;;;;5061967;28;20515;-64
2023/10/23 09:45:23;;;;;;;3.25;2.13;;;13.40;98.50;;;;;;5063238;28;20080;-63
2023/10/23 09:47:49;;;;;;;2.53;1.60;;;;;;;;;;5048469;28;20052;-65
2023/10/23 09:50:16;;;;;;;2.33;1.25;;;;;;;;;;5064265;28;20048;-63
2023/10/23 09:52:43;;;;;;;3.28;1.80;;;;;;;;;;5067015;28;20059;-65
2023/10/23 09:55:10;;;;;;;2.42;1.40;;;;;;;;;;5061591;28;20052;-63
2023/10/23 09:57:40;;;;;;;3.13;1.52;;;14.10;99.90;;;;;;5044492;28;20469;-62
2023/10/23 10:00:14;;;;;;;2.88;1.60;;;14.90;99.90;;;;;;5062865;28;20047;-64
2023/10/23 10:02:53;;;;;;;3.60;1.95;;;;;;;;;;5067255;28;20037;-62
2023/10/23 10:05:29;;;;;;;3.60;1.40;;;;;;;;;;5059148;28;20040;-63
2023/10/23 10:08:05;;;;;;;2.33;1.15;;;;;;;;;;5046558;28;20105;-63
2023/10/23 10:10:32;;;;;;;1.83;1.30;;;15.00;99.90;;;;;;5060098;28;20140;-63
2023/10/23 10:12:58;;;;;;;4.13;1.70;;;15.60;99.90;;;;;;5056558;28;20056;-63
2023/10/23 10:15:25;;;;;;;2.88;1.10;;;;;;;;;;5041766;28;20124;-62
2023/10/23 10:17:51;;;;;;;2.30;1.13;;;;;;;;;;5028756;28;20040;-64
2023/10/23 10:20:21;;;;;;;2.90;1.50;;;;;;;;;;5061129;28;20040;-62
2023/10/23 10:22:56;;;;;;;1.98;1.33;;;;;;;;;;5064753;28;20496;-62
2023/10/23 10:25:23;;;;;;;2.80;1.45;;;;;;;;;;5063710;28;20388;-65
2023/10/23 10:27:57;;;;;;;2.22;1.20;;;15.70;99.90;;;;;;5062648;28;20092;-63
2023/10/23 10:30:41;;;;;;;3.10;1.65;;;;;;;;;;5045290;28;20393;-62
2023/10/23 10:33:15;;;;;;;3.08;1.60;;;;;;;;;;5054435;28;20049;-63
2023/10/23 10:35:49;;;;;;;3.50;1.55;;;16.60;99.90;;;;;;5063585;28;20055;-64
2023/10/23 10:38:19;;;;;;;6.65;1.73;;;;;;;;;;5062454;28;20048;-63
2023/10/23 10:41:02;;;;;;;2.90;1.65;;;;;;;;;;5049787;28;20051;-63
2023/10/23 10:43:37;;;;;;;1.92;1.42;;;16.90;99.90;;;;;;5062580;28;20044;-64
2023/10/23 10:46:22;;;;;;;4.35;1.45;;;17.30;99.90;;;;;;5060939;28;20086;-64
2023/10/23 10:48:50;;;;;;;2.30;1.50;;;;;;;;;;5062543;28;20072;-63
2023/10/23 10:51:18;;;;;;;2.42;1.27;;;;;;;;;;5057535;28;20048;-64
2023/10/23 10:53:46;;;;;;;2.10;1.70;;;;;;;;;;5064951;28;20040;-63
2023/10/23 10:56:12;;;;;;;3.17;1.52;;;;;;;;;;5064402;28;20040;-64
2023/10/23 10:58:42;;;;;;;4.75;1.63;;;;;;;;;;5061016;28;20094;-63
2023/10/23 11:01:08;;;;;;;1.90;1.40;;;;;;;;;;5060967;28;20698;-63
2023/10/23 11:03:36;;;;;;;3.67;1.60;;;17.40;99.90;;;;;;5063785;28;20475;-63
2023/10/23 11:06:03;;;;;;;2.78;1.50;;;18.10;99.90;;;;;;5066404;28;20408;-64
2023/10/23 11:08:29;;;;;;;3.85;1.20;;;;;;;;;;5063885;28;20079;-62
2023/10/23 11:11:04;;;;;;;3.17;1.55;;;;;;;;;;5061672;28;20048;-64
2023/10/23 11:13:31;;;;;;;1.55;0.93;;;18.20;99.90;;;;;;5057713;28;20052;-64
2023/10/23 11:15:57;;;;;;;3.05;1.70;;;;;;;;;;5056443;28;20307;-64
2023/10/23 11:18:23;;;;;;;1.55;1.05;;;18.50;99.90;;;;;;5065188;28;20381;-64
2023/10/23 11:20:49;;;;;;;2.25;1.40;;;18.60;99.90;;;;;;5063492;28;20047;-63
2023/10/23 11:23:17;;;;;;;2.08;1.25;;;18.60;99.90;;;;;;5065605;28;20085;-63
2023/10/23 11:25:50;;;;;;;1.75;0.98;;;18.70;99.90;;;;;;5042360;28;20359;-64
2023/10/23 11:28:20;;;;;;;2.63;1.13;;;18.80;99.90;;;;;;5043810;28;20169;-64
2023/10/23 11:30:57;;;;;;;1.95;1.27;;;18.80;99.90;;;;;;5057429;28;20660;-65
2023/10/23 11:33:23;;;;;;;3.00;1.33;;;;;;;;;;5062854;28;20463;-63
2023/10/23 11:35:49;;;;;;;2.13;1.15;;;;;;;;;;5064712;28;20492;-63
2023/10/23 11:38:16;;;;;;;2.03;1.13;;;;;;;;;;5046867;28;20032;-63
2023/10/23 11:40:43;;;;;;;2.53;1.13;;;;;;;;;;5058900;28;20088;-63
2023/10/23 11:43:10;;;;;;;2.83;1.02;;;;;;;;;;5065678;28;20033;-64
2023/10/23 11:45:38;;;;;;;1.73;1.17;;;;;;;;;;5056118;28;20063;-64
2023/10/23 11:48:04;;;;;;;2.60;1.33;;;;;;;;;;5009771;28;20399;-63
2023/10/23 11:50:32;;;;;;;1.95;0.70;;;;;;;;;;5060302;28;20281;-63
2023/10/23 11:52:58;;;;;;;3.17;1.25;;;;;;;;;;5064540;28;20086;-62
2023/10/23 11:55:25;;;;;;;1.40;1.05;;;;;;;;;;5059698;28;20037;-63
2023/10/23 11:57:52;;;;;;;2.22;0.80;;;;;;;;;;5073836;28;20036;-63
2023/10/23 12:00:19;;;;;;;3.38;1.50;;;;;;;;;;5061273;28;20532;-63
2023/10/23 12:02:46;;;;;;;1.85;1.05;;;;;;;;;;5048421;28;20087;-63
2023/10/23 12:05:14;;;;;;;3.42;1.35;;;;;;;;;;5066238;28;20044;-63
2023/10/23 12:07:52;;;;;;;12.32;1.60;;;;;;;;;;5071098;28;20044;-63
2023/10/23 12:10:20;;;;;;;2.92;0.88;;;;;;;;;;5059454;28;20052;-62
2023/10/23 12:12:46;;;;;;;0.98;0.68;;;;;;;;;;5060539;28;20441;-62
2023/10/23 12:15:14;;;;;;;2.85;1.52;;;;;;;;;;5063294;28;20355;-63
2023/10/23 12:17:41;;;;;;;1.10;0.90;;;;;;;;;;5037875;28;20040;-62
2023/10/23 12:20:08;;;;;;;2.92;0.90;;;;;;;;;;5060282;28;20052;-61
2023/10/23 12:22:38;;;;;;;2.47;1.17;;;;;;;;;;5062480;28;20044;-63
2023/10/23 12:25:05;;;;;;;1.13;0.93;;;;;;;;;;5063480;28;20036;-63
2023/10/23 12:27:34;;;;;;;1.55;0.80;;;;;;;;;;5058314;28;20103;-63
2023/10/23 12:30:01;;;;;;;1.83;1.02;;;;;;;;;;5063726;28;20059;-63
2023/10/23 12:32:28;;;;;;;3.92;1.67;;;;;;;;;;5031128;28;20048;-64
2023/10/23 12:34:57;;;;;;;2.65;1.00;;;;;;;;;;5066203;28;20044;-64
2023/10/23 12:37:26;;;;;;;1.40;0.93;;;;;;;;;;5065951;28;20052;-64
2023/10/23 12:39:53;;;;;;;2.28;1.17;;;;;;;;;;5065847;28;20033;-64
2023/10/23 12:42:20;;;;;;;2.83;1.20;;;;;;;;;;5067083;28;20143;-63
2023/10/23 12:44:46;;;;;;;1.38;1.00;;;;;;;;;;5062923;28;20567;-63
2023/10/23 12:47:14;;;;;;;0.95;0.70;;;;;;;;;;5047532;28;20131;-64
2023/10/23 12:49:40;;;;;;;1.70;0.80;;;;;;;;;;5047102;28;20048;-63
2023/10/23 12:52:06;;;;;;;1.85;0.80;;;;;;;;;;5065331;28;20094;-63
2023/10/23 12:54:32;;;;;;;4.05;1.10;;;;;;;;;;5047324;28;20044;-63
2023/10/23 12:56:58;;;;;;;1.95;1.10;;;;;;;;;;5066516;28;20075;-63
2023/10/23 12:59:25;;;;;;;1.45;0.80;;;;;;;;;;5066390;28;20075;-62
2023/10/23 13:01:51;;;;;;;3.28;0.90;;;;;;;;;;5069075;28;20040;-62
2023/10/23 13:04:21;;;;;;;0.93;0.80;;;;;;;;;;5070606;28;20037;-62
2023/10/23 13:06:48;;;;;;;1.58;0.90;;;;;;;;;;5069080;28;20044;-63
2023/10/23 13:09:17;;;;;;;1.05;0.85;;;;;;;;;;5066811;28;20044;-63
2023/10/23 13:11:43;;;;;;;2.58;1.13;;;;;;;;;;5069834;28;20383;-63
2023/10/23 13:14:09;;;;;;;2.90;0.70;;;;;;;;;;5063580;28;20535;-63
2023/10/23 13:16:36;;;;;;;1.55;0.90;;;;;;;;;;5069450;28;20127;-63
2023/10/23 13:19:02;;;;;;;0.90;0.60;;;;;;;;;;5047030;28;20377;-64
2023/10/23 13:21:28;;;;;;;2.63;1.23;;;;;;;;;;5069198;28;20047;-64
2023/10/23 13:23:55;;;;;;;1.83;0.80;;;;;;;;;;5050804;28;20116;-63
2023/10/23 13:26:24;;;;;;;1.35;0.95;;;;;;;;;;5068931;28;20130;-63
2023/10/23 13:28:50;;;;;;;1.88;0.90;;;;;;;;;;5051018;28;20040;-63
2023/10/23 13:31:16;;;;;;;2.22;1.08;;;;;;;;;;5070369;28;20102;-63
2023/10/23 13:33:42;;;;;;;2.45;1.02;;;;;;;;;;5070550;28;20047;-63
2023/10/23 13:36:09;;;;;;;1.02;0.80;;;;;;;;;;5069908;28;20040;-64
2023/10/23 13:38:35;;;;;;;0.93;0.80;;;;;;;;;;5069852;28;20028;-64
2023/10/23 13:41:05;;;;;;;3.17;1.08;;;;;;;;;;5070031;28;20450;-63
2023/10/23 13:43:31;;;;;;;1.95;1.17;;;;;;;;;;5067876;28;20376;-64
2023/10/23 13:45:57;;;;;;;1.23;0.85;;;;;;;;;;5069926;28;20376;-63
2023/10/23 13:48:23;;;;;;;1.30;0.90;;;;;;;;;;5068309;28;20098;-64
2023/10/23 13:50:55;;;;;;;1.52;1.05;;;;;;;;;;5070008;28;20123;-64
2023/10/23 13:53:23;;;;;;;1.77;0.95;;;;;;;;;;5069241;28;20051;-62
2023/10/23 13:55:49;;;;;;;2.28;1.05;;;;;;;;;;5069500;28;20074;-63
2023/10/23 13:58:16;;;;;;;3.15;1.30;;;;;;;;;;5068706;28;20047;-63
2023/10/23 14:00:44;;;;;;;2.08;1.05;;;;;;;;;;5070143;28;20039;-64
2023/10/23 14:03:10;;;;;;;2.20;1.15;;;;;;;;;;5049458;28;20508;-63
2023/10/23 14:05:39;;;;;;;2.13;1.23;;;;;;;;;;5063654;28;20040;-63
2023/10/23 14:08:06;;;;;;;4.38;1.25;;;;;;;;;;5050596;28;20441;-63
2023/10/23 14:10:32;;;;;;;2.80;1.17;;;;;;;;;;5050606;28;20041;-62
2023/10/23 14:12:58;;;;;;;2.00;1.20;;;;;;;;;;5067248;28;20094;-63
2023/10/23 14:15:25;;;;;;;3.35;1.30;;;;;;;;;;5067191;28;20467;-64
2023/10/23 14:17:51;;;;;;;2.80;1.55;;;;;;;;;;5066936;28;20116;-62
2023/10/23 14:20:17;;;;;;;1.92;1.05;;;;;;;;;;5066949;28;20055;-63
2023/10/23 14:22:44;;;;;;;2.85;1.60;;;;;;;;;;5069525;28;20036;-63
2023/10/23 14:25:10;;;;;;;4.30;1.33;;;;;;;;;;5067825;28;20086;-63
2023/10/23 14:27:37;;;;;;;1.50;1.20;;;;;;;;;;5050824;28;20063;-63
2023/10/23 14:30:03;;;;;;;2.92;1.80;;;;;;;;;;5067719;28;20041;-62
2023/10/23 14:32:30;;;;;;;1.50;1.20;;;;;;;;;;5068408;28;20105;-63
2023/10/23 14:34:56;;;;;;;2.08;1.20;;;;;;;;;;5051455;28;20040;-64